Local Weather Ingen bokad jour idag Tuesday 18th of June
Flygplats METAR TAF
Airport METAR TAF
ESSL - Linköping181550Z AUTO 26014KT 9999 FEW059/// OVC074/// 20/07 Q1010=181130Z 1812/1818 23010KT 9999 SCT045 TEMPO 1812/1813 SHRA BKN040CB=
ESCF - Malmen181550Z AUTO 26014KT 9999 FEW058/// BKN076/// 19/08 Q1011=181130Z 1812/1815 20010KT CAVOK TEMPO 1812/1815 24015G25KT 8000 -SHRA BKN030CB RMK MIL=
ESSP - Norrköping181550Z AUTO 26014KT 9999 FEW059/// 20/08 Q1010=AMD 181222Z 1812/1815 24010KT 9999 FEW040 TEMPO 1812/1815 26020G30KT SHRA SCT040CB=
ESGJ - Jönköping181550Z 23014KT 200V260 9999 FEW045 16/10 Q1012=181430Z 1815/1824 24012KT 9999 SCT040=
ESKN - Skavsta181550Z 24012KT 200V260 9999 SCT047 19/10 Q1010=181130Z 1812/1912 24009KT 9999 SCT045 PROB40 TEMPO 1812/1815 SCT045CB PROB40 1911/1912 SCT040TCU=
ESSV - Visby181550Z 21016KT CAVOK 20/12 Q1011=181130Z 1812/1820 22014KT CAVOK PROB40 TEMPO 1814/1817 SCT040CB=
ESGG - Göteborg181550Z 25008KT 9999 FEW015 SCT026TCU BKN049 13/11 Q1012=181430Z 1815/1915 23013KT 9999 BKN020 PROB40 1815/1817 SCT020TCU PROB40 1900/1909 BKN012=
FLEET STATUS
Flygplan Tid till service Tid till flygstopp Flygtid Landningar
Aircraft To service To stop Total time Landings
SE-IUD12.8 h17.8 h13 037.2 h26 787 st.
SE-KIT34.7 h39.7 h13 415.3 h26 860 st.
SE-KMH-2.3 h7.7 h17 402.3 h64 310 st.
(1) 7.7 timmar till flygstopp
SE-LRL41.1 h46.1 h2 158.9 h4 307 st.
SE-MEKN/AN/A4 119.2 h4 642 st.
SE-MMZ14.4 h24.4 h1 485.6 h2 721 st.
PPR
Ankomst Avgång Flygplan Namn Bränsle
Arrival Departure Aircraft Name Fuel
18/6 10:0018/6 14:00SE-LGLMagnus AnderssonInget
NOTAM
>>> ESSL/LINKOPING/SAAB <<<
+ AERODROME CONTROL TOWER (TWR) HOURS OF SERVICE ARE NOW MON 0340-1500 2025-2135, TUE 0340-1500 2025-2135, WED 0340-1500 2025-2135, THU 0340-1500 2025-2135, FRI 0340-0430 0855-1025 1330-1500 2025-2135, SAT 0340-0430 1510-1640 2025-2135, SUN 0340-0430 1415-1545 2025-2135 FROM: 17 JUN 2024 06:30 TO: 23 JUN 2024 23:59
+ RWY 29 LIMITED. MAKE WIDE TURNS FIRST 600 METERS FROM THR RWY 29 DUE SOFT RWY SURFACE CONDITIONS. FROM: 20 MAY 2024 10:48 TO: 20 AUG 2024 08:00
>>> ESSP/NORRKOPING/KUNGSANGEN <<<
+ IFR/VFR SCHOOL NOT ALLOWED. FROM: 19 JUN 2024 11:00 TO: 19 JUN 2024 12:30
+ RWY 09/27 LIMITED TO NO TGL ALLOWED DUE TO WIP OPEN DITCHES ALONG RWY EDGE. SCHEDULE: MON-FRI 0500-1400 FROM: 12 JUN 2024 11:43 TO: 20 JUN 2024 14:00
+ OCA/OCH CHANGED FOR RNP LPV APCH RWY 09: CAT A: OCA 412 FT OCH 399 FT CAT B: OCA 425 FT OCH 412 FT CAT C: OCA 433 FT OCH 420 FT CAT D: OCA 443 FT OCH 430 FT SCHEDULE: MON-FRI 0400-1600 FROM: 14 JUN 2024 04:00 TO: 28 JUN 2024 16:00
+ OCA/OCH CHANGED FOR CIRCLING SOUTH OF RWY 09/27: CAT A: OCA 580 FT OCH 550 FT SCHEDULE: MON-FRI 0400-1600 FROM: 14 JUN 2024 04:00 TO: 28 JUN 2024 16:00
+ OCA/OCH CHANGED FOR ILS APCH RWY 09: CAT A: OCA 364 FT OCH 350 FT CAT B: OCA 370 FT OCH 356 FT CAT C: OCA 378 FT OCH 364 FT CAT D: OCA 386 FT OCH 372 FT SCHEDULE: MON-FRI 0400-1600 FROM: 14 JUN 2024 04:00 TO: 28 JUN 2024 16:00
+ CRANE ERECTED IN APCH RWY 09 PSN 583510N 0161123E HGT 230FT AGL ELEV 283FT AMSL. LGTD FIXED R. SCHEDULE: MON-FRI 0400-1600 FROM: 14 JUN 2024 04:00 TO: 28 JUN 2024 16:00
+ AERODROME CONTROL TOWER (TWR) HOURS OF SERVICE ARE NOW MON 0500-1900, TUE 0500-1430, WED 0315-1430, THU 0500-1430, FRI 1300-1530, SAT 0000-0130 0400-0600, SUN CLOSED FROM: 17 JUN 2024 00:00 TO: 23 JUN 2024 23:59
>>> ESCF/LINKOPING/MALMEN <<<
+ ILS RWY 01 U/S FROM: 23 MAY 2024 07:21 TO: 20 JUN 2024 10:00 EST